Time;durP1;ratioP1;P1;durP2;ratioP2;P2;SDS_P1;SDS_P2;PMS_P1;PMS_P2;Temp;Humidity;BMP_temperature;BMP_pressure;BME280_temperature;BME280_humidity;BME280_pressure;Samples;Min_cycle;Max_cycle;Signal;HPM_P1;HPM_P2
2021/03/18 00:00:45;;;;;;;;;12.75;10.00;;;;;-142.71;100.00;64517.53;3725157;37;20728;-57
2021/03/18 00:03:19;;;;;;;;;14.25;13.00;;;;;-142.71;100.00;64517.53;3725116;37;20782;-58
2021/03/18 00:05:47;;;;;;;;;10.00;10.00;;;;;-142.71;100.00;64517.53;3725184;37;20755;-59
2021/03/18 00:08:15;;;;;;;;;12.25;10.00;;;;;-142.71;100.00;64517.53;3725050;38;20743;-59
2021/03/18 00:10:42;;;;;;;;;6.00;6.00;;;;;-142.71;100.00;64517.53;3725232;37;20762;-57
2021/03/18 00:13:09;;;;;;;;;11.50;10.00;;;;;-142.71;100.00;64517.53;3725160;37;20649;-57
2021/03/18 00:15:36;;;;;;;;;10.75;9.25;;;;;-142.71;100.00;64517.53;3725124;37;20716;-57
2021/03/18 00:18:05;;;;;;;;;10.25;10.25;;;;;-142.71;100.00;64517.53;3725042;37;20747;-58
2021/03/18 00:20:33;;;;;;;;;9.75;9.50;;;;;-142.71;100.00;64517.53;3725029;37;20750;-58
2021/03/18 00:22:59;;;;;;;;;7.75;7.50;;;;;-142.71;100.00;64517.53;3724922;38;20698;-57
2021/03/18 00:25:27;;;;;;;;;12.75;11.00;;;;;-142.71;100.00;64517.53;3724984;38;20721;-56
2021/03/18 00:27:55;;;;;;;;;11.00;9.00;;;;;-142.71;100.00;64517.53;3724982;37;20782;-59
2021/03/18 00:30:22;;;;;;;;;10.75;10.75;;;;;-142.71;100.00;64517.53;3725026;37;20748;-57
2021/03/18 00:32:52;;;;;;;;;11.50;10.50;;;;;-142.71;100.00;64517.53;3724924;38;20727;-57
2021/03/18 00:35:21;;;;;;;;;4.50;4.50;;;;;-142.71;100.00;64517.53;3724677;37;20747;-57
2021/03/18 00:37:49;;;;;;;;;6.25;6.00;;;;;-142.71;100.00;64517.53;3724585;37;20732;-57
2021/03/18 00:40:23;;;;;;;;;10.25;8.50;;;;;-142.71;100.00;64517.53;3725167;38;20633;-57
2021/03/18 00:43:07;;;;;;;;;9.25;9.25;;;;;-142.71;100.00;64517.53;3725181;37;20679;-57
2021/03/18 00:45:38;;;;;;;;;8.25;8.25;;;;;-142.71;100.00;64517.53;3725018;38;20721;-57
2021/03/18 00:48:07;;;;;;;;;9.75;8.50;;;;;-142.71;100.00;64517.53;3724666;37;20623;-57
2021/03/18 00:50:52;;;;;;;;;7.00;7.00;;;;;-142.71;100.00;64517.53;3724599;37;20682;-59
2021/03/18 00:53:25;;;;;;;;;11.00;8.00;;;;;-142.71;100.00;64517.53;3725095;38;20595;-58
2021/03/18 00:55:52;;;;;;;;;6.50;6.00;;;;;-142.71;100.00;64517.53;3725171;38;20599;-58
2021/03/18 00:58:19;;;;;;;;;6.00;5.25;;;;;-142.71;100.00;64517.53;3724857;37;20561;-56
2021/03/18 01:00:56;;;;;;;;;12.00;9.25;;;;;-142.71;100.00;64517.53;3724455;38;20603;-59
2021/03/18 01:03:24;;;;;;;;;12.50;9.75;;;;;-142.71;100.00;64517.53;3724669;38;20635;-56
2021/03/18 01:05:56;;;;;;;;;8.50;8.00;;;;;-142.71;100.00;64517.53;3725087;37;20608;-57
2021/03/18 01:08:26;;;;;;;;;10.00;7.50;;;;;-142.71;100.00;64517.53;3725027;37;20593;-56
2021/03/18 01:10:57;;;;;;;;;10.00;8.50;;;;;-142.71;100.00;64517.53;3725116;37;20639;-58
2021/03/18 01:13:23;;;;;;;;;10.00;9.75;;;;;-142.71;100.00;64517.53;3725264;38;20623;-57
2021/03/18 01:15:59;;;;;;;;;10.00;9.25;;;;;-142.71;100.00;64517.53;3725292;37;20600;-58
2021/03/18 01:18:50;;;;;;;;;9.00;8.50;;;;;-142.71;100.00;64517.53;3725732;38;20635;-58
2021/03/18 01:21:19;;;;;;;;;10.00;8.50;;;;;-142.71;100.00;64517.53;3726277;38;20574;-58
2021/03/18 01:23:47;;;;;;;;;9.00;7.50;;;;;-142.71;100.00;64517.53;3728272;38;20655;-58
2021/03/18 01:26:18;;;;;;;;;7.00;4.50;;;;;-142.71;100.00;64517.53;3728085;37;20564;-57
2021/03/18 01:28:45;;;;;;;;;10.75;10.25;;;;;-142.71;100.00;64517.53;3728517;38;20565;-57
2021/03/18 01:31:14;;;;;;;;;1.75;0.00;;;;;-142.71;100.00;64517.53;3725231;38;20672;-57
2021/03/18 01:33:41;;;;;;;;;7.75;7.25;;;;;-142.71;100.00;64517.53;3725010;37;20558;-57
2021/03/18 01:36:12;;;;;;;;;9.25;9.25;;;;;-142.71;100.00;64517.53;3724918;38;20621;-57
2021/03/18 01:38:43;;;;;;;;;10.25;9.00;;;;;-142.71;100.00;64517.53;3724979;37;20632;-56
2021/03/18 01:41:09;;;;;;;;;5.00;4.25;;;;;-142.71;100.00;64517.53;3724517;37;20577;-59
2021/03/18 01:43:38;;;;;;;;;5.00;3.00;;;;;-142.71;100.00;64517.53;3724874;38;20568;-57
2021/03/18 01:46:07;;;;;;;;;10.50;8.00;;;;;-142.71;100.00;64517.53;3725037;38;20561;-58
2021/03/18 01:48:37;;;;;;;;;2.00;1.75;;;;;-142.71;100.00;64517.53;3724381;37;20595;-58
2021/03/18 01:51:05;;;;;;;;;10.50;10.25;;;;;-142.71;100.00;64517.53;3724962;38;20560;-58
2021/03/18 01:53:33;;;;;;;;;7.00;5.50;;;;;-142.71;100.00;64517.53;3724763;37;20616;-59
2021/03/18 01:56:00;;;;;;;;;9.00;9.00;;;;;-142.71;100.00;64517.53;3724453;38;20546;-58
2021/03/18 01:58:26;;;;;;;;;12.00;10.00;;;;;-142.71;100.00;64517.53;3724974;38;20591;-58
2021/03/18 02:01:08;;;;;;;;;7.25;6.25;;;;;-142.71;100.00;64517.53;3725027;37;20576;-59
2021/03/18 02:03:35;;;;;;;;;6.25;6.25;;;;;-142.71;100.00;64517.53;3724970;37;20510;-58
2021/03/18 02:06:02;;;;;;;;;7.00;7.00;;;;;-142.71;100.00;64517.53;3724983;38;20537;-58
2021/03/18 02:08:28;;;;;;;;;9.75;9.75;;;;;-142.71;100.00;64517.53;3724856;37;20495;-58
2021/03/18 02:10:55;;;;;;;;;11.25;9.25;;;;;-142.71;100.00;64517.53;3724755;37;20530;-58
2021/03/18 02:13:21;;;;;;;;;11.00;10.00;;;;;-142.71;100.00;64517.53;3724952;37;20588;-58
2021/03/18 02:15:55;;;;;;;;;13.00;11.00;;;;;-142.71;100.00;64517.53;3725004;38;20499;-58
2021/03/18 02:18:29;;;;;;;;;10.25;9.00;;;;;-142.71;100.00;64517.53;3724942;38;20570;-58
2021/03/18 02:21:39;;;;;;;;;9.75;7.00;;;;;-142.71;100.00;64517.53;3724975;37;20498;-58
2021/03/18 02:24:41;;;;;;;;;10.00;8.50;;;;;-142.71;100.00;64517.53;3724856;38;20502;-58
2021/03/18 02:27:58;;;;;;;;;9.00;7.00;;;;;-142.71;100.00;64517.53;3724955;37;20532;-57
2021/03/18 02:30:56;;;;;;;;;14.50;10.50;;;;;-142.71;100.00;64517.53;3724822;37;20518;-58
2021/03/18 02:33:58;;;;;;;;;13.50;9.25;;;;;-142.71;100.00;64517.53;3724798;37;20564;-57
2021/03/18 02:36:50;;;;;;;;;11.50;9.75;;;;;-142.71;100.00;64517.53;3724849;37;20573;-58
2021/03/18 02:39:24;;;;;;;;;12.75;10.00;;;;;-142.71;100.00;64517.53;3724910;38;20577;-58
2021/03/18 02:41:59;;;;;;;;;9.75;9.75;;;;;-142.71;100.00;64517.53;3724625;38;20555;-57
2021/03/18 02:44:32;;;;;;;;;10.75;9.75;;;;;-142.71;100.00;64517.53;3725006;38;20572;-57
2021/03/18 02:47:11;;;;;;;;;9.00;9.00;;;;;-142.71;100.00;64517.53;3727651;37;20860;-59
2021/03/18 02:49:45;;;;;;;;;10.25;10.25;;;;;-142.71;100.00;64517.53;3724762;37;20460;-58
2021/03/18 02:52:15;;;;;;;;;9.25;7.00;;;;;-142.71;100.00;64517.53;3725959;37;20446;-58
2021/03/18 02:54:43;;;;;;;;;9.75;9.00;;;;;-142.71;100.00;64517.53;3727040;38;20445;-58
2021/03/18 02:57:14;;;;;;;;;9.25;8.50;;;;;-142.71;100.00;64517.53;3723851;38;20438;-57
2021/03/18 02:59:43;;;;;;;;;10.25;9.00;;;;;-142.71;100.00;64517.53;3724137;37;20469;-59
2021/03/18 03:02:21;;;;;;;;;11.50;10.00;;;;;-142.71;100.00;64517.53;3725074;37;20516;-59
2021/03/18 03:04:49;;;;;;;;;9.00;9.00;;;;;-142.71;100.00;64517.53;3727534;37;20526;-58
2021/03/18 03:07:18;;;;;;;;;16.50;11.50;;;;;-142.71;100.00;64517.53;3726628;38;20538;-58
2021/03/18 03:09:47;;;;;;;;;12.00;11.00;;;;;-142.71;100.00;64517.53;3724978;37;20548;-59
2021/03/18 03:12:15;;;;;;;;;10.25;9.25;;;;;-142.71;100.00;64517.53;3725222;38;20509;-58
2021/03/18 03:14:44;;;;;;;;;9.00;9.00;;;;;-142.71;100.00;64517.53;3724940;37;20434;-59
2021/03/18 03:17:14;;;;;;;;;8.50;7.00;;;;;-142.71;100.00;64517.53;3725081;37;20510;-59
2021/03/18 03:19:43;;;;;;;;;10.00;8.00;;;;;-142.71;100.00;64517.53;3725161;38;20486;-59
2021/03/18 03:22:11;;;;;;;;;14.25;11.00;;;;;-142.71;100.00;64517.53;3725541;37;20520;-59
2021/03/18 03:24:41;;;;;;;;;12.50;10.00;;;;;-142.71;100.00;64517.53;3729768;37;20492;-60
2021/03/18 03:27:08;;;;;;;;;14.25;13.50;;;;;-142.71;100.00;64517.53;3725172;37;20488;-59
2021/03/18 03:29:37;;;;;;;;;12.75;11.25;;;;;-142.71;100.00;64517.53;3727651;37;20499;-59
2021/03/18 03:32:07;;;;;;;;;21.25;17.50;;;;;-142.71;100.00;64517.53;3724395;38;20488;-60
2021/03/18 03:34:33;;;;;;;;;15.50;11.50;;;;;-142.71;100.00;64517.53;3724957;37;20507;-60
2021/03/18 03:36:59;;;;;;;;;10.25;10.25;;;;;-142.71;100.00;64517.53;3724927;38;20484;-58
2021/03/18 03:39:26;;;;;;;;;11.00;10.00;;;;;-142.71;100.00;64517.53;3725065;38;20543;-59
2021/03/18 03:41:52;;;;;;;;;16.75;12.25;;;;;-142.71;100.00;64517.53;3724879;38;20480;-59
2021/03/18 03:44:19;;;;;;;;;14.25;11.25;;;;;-142.71;100.00;64517.53;3724970;37;20483;-60
2021/03/18 03:46:45;;;;;;;;;11.00;10.75;;;;;-142.71;100.00;64517.53;3725025;38;20472;-59
2021/03/18 03:49:12;;;;;;;;;14.00;13.00;;;;;-142.71;100.00;64517.53;3725083;38;20572;-60
2021/03/18 03:51:57;;;;;;;;;13.25;10.00;;;;;-142.71;100.00;64517.53;3724490;38;20464;-59
2021/03/18 03:55:40;;;;;;;;;16.50;14.00;;;;;;;;3653552;38;335482;-58
2021/03/18 03:58:10;;;;;;;;;12.25;12.00;;;;;;;;3682777;38;1554086;-61
2021/03/18 04:00:38;;;;;;;;;10.75;9.75;;;;;;;;3727986;37;18276;-60
2021/03/18 04:03:08;;;;;;;;;12.25;10.50;;;;;;;;3727583;38;20863;-60
2021/03/18 04:05:35;;;;;;;;;12.25;11.00;;;;;;;;3709846;38;234333;-59
2021/03/18 04:08:05;;;;;;;;;15.00;13.00;;;;;;;;3727913;37;20853;-60
2021/03/18 04:10:34;;;;;;;;;10.75;10.00;;;;;;;;3727926;37;20866;-59
2021/03/18 04:13:01;;;;;;;;;11.00;9.75;;;;;;;;3728206;37;20843;-60
2021/03/18 04:15:30;;;;;;;;;13.25;11.50;;;;;;;;3727500;38;20835;-60
2021/03/18 04:18:01;;;;;;;;;17.00;14.50;;;;;;;;3727747;37;20829;-61
2021/03/18 04:20:28;;;;;;;;;19.25;12.25;;;;;;;;3727871;38;20866;-60
2021/03/18 04:22:55;;;;;;;;;9.75;7.50;;;;;;;;3728076;37;20824;-59
2021/03/18 04:25:22;;;;;;;;;14.25;12.50;;;;;;;;3728150;38;20787;-59
2021/03/18 04:27:56;;;;;;;;;12.25;11.00;;;;;;;;3728073;38;20822;-60
2021/03/18 04:30:24;;;;;;;;;14.00;14.00;;;;;;;;3727262;38;20833;-60
2021/03/18 04:32:50;;;;;;;;;14.25;12.00;;;;;;;;3728086;37;20840;-60
2021/03/18 04:35:17;;;;;;;;;15.00;13.75;;;;;;;;3728228;38;20814;-59
2021/03/18 04:37:50;;;;;;;;;17.50;13.50;;;;;;;;3728105;37;20830;-61
2021/03/18 04:40:18;;;;;;;;;9.75;9.25;;;;;;;;3728220;37;20818;-59
2021/03/18 04:42:44;;;;;;;;;13.75;10.75;;;;;;;;3728250;38;20810;-60
2021/03/18 04:45:11;;;;;;;;;14.50;13.50;;;;;;;;3727632;37;20779;-59
2021/03/18 04:47:38;;;;;;;;;13.75;11.50;;;;;;;;3727744;38;20783;-58
2021/03/18 04:50:05;;;;;;;;;18.50;14.00;;;;;;;;3728019;38;20783;-60
2021/03/18 04:52:32;;;;;;;;;24.50;20.75;;;;;;;;3728164;37;20830;-60
2021/03/18 04:54:58;;;;;;;;;21.25;17.00;;;;;;;;3727530;38;21245;-58
2021/03/18 04:57:24;;;;;;;;;15.75;15.50;;;;;;;;3728061;38;21296;-60
2021/03/18 04:59:57;;;;;;;;;14.50;11.50;;;;;;;;3728572;38;18245;-59
2021/03/18 05:02:25;;;;;;;;;21.25;17.25;;;;;;;;3730077;37;21245;-59
2021/03/18 05:04:51;;;;;;;;;16.75;14.75;;;;;;;;3727965;37;21287;-60
2021/03/18 05:07:19;;;;;;;;;15.00;14.25;;;;;;;;3727558;37;21286;-60
2021/03/18 05:09:45;;;;;;;;;15.25;14.50;;;;;;;;3732618;38;21276;-59
2021/03/18 05:12:11;;;;;;;;;17.00;11.75;;;;;;;;3733628;37;21282;-60
2021/03/18 05:14:38;;;;;;;;;15.75;13.50;;;;;;;;3730060;37;21285;-61
2021/03/18 05:17:04;;;;;;;;;13.75;13.75;;;;;;;;3731039;37;21282;-59
2021/03/18 05:19:31;;;;;;;;;12.25;10.00;;;;;;;;3733037;37;21271;-59
2021/03/18 05:22:03;;;;;;;;;15.50;13.00;;;;;;;;3732634;38;21226;-60
2021/03/18 05:24:29;;;;;;;;;19.00;17.50;;;;;;;;3729388;37;21237;-60
2021/03/18 05:26:55;;;;;;;;;13.75;12.25;;;;;;;;3730363;38;21265;-57
2021/03/18 05:29:21;;;;;;;;;13.75;11.00;;;;;;;;3729355;37;18194;-59
2021/03/18 05:31:46;;;;;;;;;19.00;12.25;;;;;;;;3728882;37;18219;-59
2021/03/18 05:34:13;;;;;;;;;12.25;12.00;;;;;;;;3728353;38;18203;-60
2021/03/18 05:36:39;;;;;;;;;15.75;15.50;;;;;;;;3728843;37;18201;-59
2021/03/18 05:39:05;;;;;;;;;15.50;12.50;;;;;;;;3727709;38;21233;-60
2021/03/18 05:41:32;;;;;;;;;14.25;11.50;;;;;;;;3727777;37;18194;-59
2021/03/18 05:43:58;;;;;;;;;15.00;13.50;;;;;;;;3727750;37;21199;-58
2021/03/18 05:46:25;;;;;;;;;15.50;14.75;;;;;;;;3727827;37;21319;-60
2021/03/18 05:48:52;;;;;;;;;19.00;15.25;;;;;;;;3727785;37;21226;-60
2021/03/18 05:51:19;;;;;;;;;22.75;17.75;;;;;;;;3727580;38;21203;-58
2021/03/18 05:53:46;;;;;;;;;20.75;19.25;;;;;;;;3727792;37;21218;-59
2021/03/18 05:56:17;;;;;;;;;12.50;12.25;;;;;;;;3727757;38;21207;-57
2021/03/18 05:58:44;;;;;;;;;24.75;23.00;;;;;;;;3727337;37;21214;-59
2021/03/18 06:01:12;;;;;;;;;20.50;19.00;;;;;;;;3727550;37;21175;-60
2021/03/18 06:03:38;;;;;;;;;22.00;16.00;;;;;;;;3727458;37;21251;-59
2021/03/18 06:06:05;;;;;;;;;19.50;18.00;;;;;;;;3727454;38;21206;-61
2021/03/18 06:08:33;;;;;;;;;17.50;16.00;;;;;;;;3727271;37;18155;-60
2021/03/18 06:10:59;;;;;;;;;16.50;15.25;;;;;;;;3727434;38;21221;-57
2021/03/18 06:13:25;;;;;;;;;14.50;10.75;;;;;;;;3726987;37;21015;-60
2021/03/18 06:15:53;;;;;;;;;19.75;17.00;;;;;;;;3727586;37;21187;-60
2021/03/18 06:18:20;;;;;;;;;18.50;14.00;;;;;;;;3727825;38;21201;-59
2021/03/18 06:20:53;;;;;;;;;20.50;14.50;;;;;;;;3728307;37;18137;-62
2021/03/18 06:23:19;;;;;;;;;13.50;13.50;;;;;;;;3727772;37;21123;-60
2021/03/18 06:25:45;;;;;;;;;13.75;9.25;;;;;;;;3727897;37;21166;-60
2021/03/18 06:28:30;;;;;;;;;17.75;16.75;;;;;;;;3727851;38;18151;-59
2021/03/18 06:31:15;;;;;;;;;17.00;17.00;;;;;;;;3727825;37;21171;-61
2021/03/18 06:33:42;;;;;;;;;35.25;29.00;;;;;;;;3728055;37;21147;-58
2021/03/18 06:36:31;;;;;;;;;20.25;19.00;;;;;;;;3727991;37;21170;-60
2021/03/18 06:39:08;;;;;;;;;22.00;20.25;;;;;;;;3727745;37;21197;-61
2021/03/18 06:41:36;;;;;;;;;30.50;25.75;;;;;;;;3727381;37;21157;-62
2021/03/18 06:44:17;;;;;;;;;33.25;30.50;;;;;;;;3727861;37;21153;-59
2021/03/18 06:46:44;;;;;;;;;34.50;32.50;;;;;;;;3727840;38;21236;-63
2021/03/18 06:49:14;;;;;;;;;23.25;21.00;;;;;;;;3727435;38;21166;-61
2021/03/18 06:51:41;;;;;;;;;28.00;23.00;;;;;;;;3728059;37;21135;-63
2021/03/18 06:54:21;;;;;;;;;19.75;17.25;;;;;;;;3727562;37;21131;-62
2021/03/18 06:56:54;;;;;;;;;19.25;14.75;;;;;;;;3727828;38;21135;-66
2021/03/18 06:59:23;;;;;;;;;17.00;16.50;;;;;;;;3727819;37;21128;-66
2021/03/18 07:02:02;;;;;;;;;20.75;19.50;;;;;;;;3727948;37;21136;-67
2021/03/18 07:04:38;;;;;;;;;20.00;18.25;;;;;;;;3728162;38;21137;-66
2021/03/18 07:07:04;;;;;;;;;17.75;16.75;;;;;;;;3727722;37;21126;-66
2021/03/18 07:09:31;;;;;;;;;12.25;12.25;;;;;;;;3727968;38;21096;-67
2021/03/18 07:12:05;;;;;;;;;18.50;10.50;;;;;;;;3727621;37;21103;-65
2021/03/18 07:14:44;;;;;;;;;21.50;19.25;;;;;;;;3727935;38;21055;-66
2021/03/18 07:17:48;;;;;;;;;23.25;21.00;;;;;;;;3728137;37;21087;-69
2021/03/18 07:20:32;;;;;;;;;20.50;16.75;;;;;;;;3729397;38;21097;-68
2021/03/18 07:22:58;;;;;;;;;25.00;22.25;;;;;;;;3728498;38;21124;-66
2021/03/18 07:25:25;;;;;;;;;18.25;16.25;;;;;;;;3728216;38;21091;-66
2021/03/18 07:27:52;;;;;;;;;20.25;16.25;;;;;;;;3728202;37;18051;-67
2021/03/18 07:30:36;;;;;;;;;15.25;12.50;;;;;;;;3727716;37;21082;-69
2021/03/18 07:33:03;;;;;;;;;18.00;15.50;;;;;;;;3728530;38;21111;-66
2021/03/18 07:35:30;;;;;;;;;18.50;16.00;;;;;;;;3728182;38;21078;-68
2021/03/18 07:37:56;;;;;;;;;27.00;23.25;;;;;;;;3728183;38;21076;-65
2021/03/18 07:40:29;;;;;;;;;14.75;11.50;;;;;;;;3727963;38;21090;-71
2021/03/18 07:42:55;;;;;;;;;22.50;21.00;;;;;;;;3728150;38;21082;-67
2021/03/18 07:45:22;;;;;;;;;16.50;13.00;;;;;;;;3728077;37;21076;-68
2021/03/18 07:47:49;;;;;;;;;10.00;10.00;;;;;;;;3728096;37;21081;-68
2021/03/18 07:50:17;;;;;;;;;16.00;12.25;;;;;;;;3728207;37;21012;-67
2021/03/18 07:52:44;;;;;;;;;18.25;16.25;;;;;;;;3728497;38;21037;-65
2021/03/18 07:55:12;;;;;;;;;13.50;13.50;;;;;;;;3728238;37;21058;-67
2021/03/18 07:57:41;;;;;;;;;16.50;12.50;;;;;;;;3728052;38;21067;-68
2021/03/18 08:00:08;;;;;;;;;12.00;11.00;;;;;;;;3728009;38;20996;-69
2021/03/18 08:02:34;;;;;;;;;14.25;11.75;;;;;;;;3728048;37;21054;-67
2021/03/18 08:05:00;;;;;;;;;8.75;8.75;;;;;;;;3727967;37;20999;-67
2021/03/18 08:07:45;;;;;;;;;12.00;11.00;;;;;;;;3728548;38;18007;-68
2021/03/18 08:10:42;;;;;;;;;14.25;13.25;;;;;;;;3728531;37;18007;-73
2021/03/18 08:13:12;;;;;;;;;12.25;11.25;;;;;;;;3728663;37;21067;-68
2021/03/18 08:15:45;;;;;;;;;18.75;16.75;;;;;;;;3727943;38;21027;-70
2021/03/18 08:18:33;;;;;;;;;14.25;12.00;;;;;;;;3727879;37;21026;-68
2021/03/18 08:21:01;;;;;;;;;9.25;7.50;;;;;;;;3727842;37;21012;-72
2021/03/18 08:23:36;;;;;;;;;6.75;6.00;;;;;;;;3728005;37;20896;-67
2021/03/18 08:26:08;;;;;;;;;16.50;15.75;;;;;;;;3727801;38;20863;-69
2021/03/18 08:28:56;;;;;;;;;12.75;11.00;;;;;;;;3727652;38;21014;-68
2021/03/18 08:31:41;;;;;;;;;11.75;11.00;;;;;;;;3727826;38;20924;-68
2021/03/18 08:34:16;;;;;;;;;12.00;11.00;;;;;;;;3727890;38;20916;-66
2021/03/18 08:36:56;;;;;;;;;10.00;9.75;;;;;;;;3728818;38;20950;-68
2021/03/18 08:39:53;;;;;;;;;8.25;8.25;;;;;;;;3728347;38;20965;-68
2021/03/18 08:42:48;;;;;;;;;20.25;16.00;;;;;;;;3725140;38;20874;-69
2021/03/18 08:45:39;;;;;;;;;11.00;10.00;;;;;;;;3725063;37;21027;-68
2021/03/18 08:48:11;;;;;;;;;15.50;12.75;;;;;;;;3725372;38;20961;-68
2021/03/18 08:50:47;;;;;;;;;12.00;10.25;;;;;;;;3725141;38;20930;-65
2021/03/18 08:53:44;;;;;;;;;12.00;10.00;;;;;;;;3725271;37;20955;-68
2021/03/18 08:56:11;;;;;;;;;12.25;11.25;;;;;;;;3725256;38;20947;-69
2021/03/18 08:58:46;;;;;;;;;10.25;10.00;;;;;;;;3725019;37;20917;-68
2021/03/18 09:01:19;;;;;;;;;14.00;10.25;;;;;;;;3732217;38;20904;-68
2021/03/18 09:03:55;;;;;;;;;14.00;10.75;;;;;;;;3740008;37;20928;-70
2021/03/18 09:06:21;;;;;;;;;17.50;15.00;;;;;;;;3730998;38;20978;-70
2021/03/18 09:08:49;;;;;;;;;14.75;12.25;;;;;;;;3731060;37;20972;-71
2021/03/18 09:11:25;;;;;;;;;14.75;12.00;;;;;;;;3740947;37;20986;-71
2021/03/18 09:13:54;;;;;;;;;20.00;17.00;;;;;;;;3740625;38;20974;-69
2021/03/18 09:16:26;;;;;;;;;3.25;3.25;;;;;;;;3726627;38;21011;-65
2021/03/18 09:19:00;;;;;;;;;8.50;8.50;;;;;;;;3725537;38;20827;-67
2021/03/18 09:21:36;;;;;;;;;15.50;14.75;;;;;;;;3724771;37;20878;-69
2021/03/18 09:24:09;;;;;;;;;8.75;6.50;;;;;;;;3725365;38;21101;-68
2021/03/18 09:26:39;;;;;;;;;11.00;10.50;;;;;;;;3725248;38;20841;-68
2021/03/18 09:29:05;;;;;;;;;16.75;16.00;;;;;;;;3725130;38;20900;-67
2021/03/18 09:31:31;;;;;;;;;10.50;7.75;;;;;;;;3725137;37;20908;-66
2021/03/18 09:34:05;;;;;;;;;22.00;14.50;;;;;;;;3724690;37;20847;-70
2021/03/18 09:36:33;;;;;;;;;16.50;13.75;;;;;;;;3724996;38;17874;-71
2021/03/18 09:39:00;;;;;;;;;12.25;11.50;;;;;;;;3724502;38;20883;-70
2021/03/18 09:41:32;;;;;;;;;17.75;14.50;;;;;;;;3724814;37;20906;-68
2021/03/18 09:44:08;;;;;;;;;15.50;15.25;;;;;;;;3725151;38;20899;-66
2021/03/18 09:46:34;;;;;;;;;7.25;6.50;;;;;;;;3725206;37;20860;-67
2021/03/18 09:49:00;;;;;;;;;15.75;12.00;;;;;;;;3725075;38;20792;-66
2021/03/18 09:51:32;;;;;;;;;13.00;12.25;;;;;;;;3725069;37;20824;-66
2021/03/18 09:53:59;;;;;;;;;16.25;13.00;;;;;;;;3724914;38;17863;-65
2021/03/18 09:56:25;;;;;;;;;14.75;13.00;;;;;;;;3724841;37;20587;-67
2021/03/18 09:58:52;;;;;;;;;18.25;17.25;;;;;;;;3725042;38;20884;-67
2021/03/18 10:01:20;;;;;;;;;13.00;12.75;;;;;;;;3725086;38;20910;-67
2021/03/18 10:04:02;;;;;;;;;11.50;7.00;;;;;;;;3725139;37;20846;-68
2021/03/18 10:06:35;;;;;;;;;16.50;15.25;;;;;;;;3724995;37;20789;-65
2021/03/18 10:09:19;;;;;;;;;13.00;13.00;;;;;;;;3724910;38;20866;-63
2021/03/18 10:11:49;;;;;;;;;14.25;12.25;;;;;;;;3724901;38;20624;-62
2021/03/18 10:14:18;;;;;;;;;14.50;11.00;;;;;;;;3724905;37;20842;-65
2021/03/18 10:16:46;;;;;;;;;12.25;11.75;;;;;;;;3724947;38;20833;-64
2021/03/18 10:19:12;;;;;;;;;11.75;11.75;;;;;;;;3724742;37;20783;-64
2021/03/18 10:21:39;;;;;;;;;9.75;8.00;;;;;;;;3725188;38;20830;-67
2021/03/18 10:24:05;;;;;;;;;15.50;12.75;;;;;;;;3725202;37;20726;-66
2021/03/18 10:26:32;;;;;;;;;13.00;12.00;;;;;;;;3724653;37;20820;-66
2021/03/18 10:29:00;;;;;;;;;11.00;9.00;;;;;;;;3724790;38;20810;-63
2021/03/18 10:31:33;;;;;;;;;7.50;7.00;;;;;;;;3724812;38;20719;-65
2021/03/18 10:33:59;;;;;;;;;11.00;10.75;;;;;;;;3725235;37;20731;-69
2021/03/18 10:36:41;;;;;;;;;8.25;8.25;;;;;;;;3725036;38;20765;-66
2021/03/18 10:39:13;;;;;;;;;13.25;11.50;;;;;;;;3725218;37;20714;-68
2021/03/18 10:41:58;;;;;;;;;8.25;8.00;;;;;;;;3725176;37;20773;-66
2021/03/18 10:44:42;;;;;;;;;11.75;9.00;;;;;;;;3724792;37;20658;-68
2021/03/18 10:47:33;;;;;;;;;13.75;12.75;;;;;;;;3725174;38;20794;-68
2021/03/18 10:50:06;;;;;;;;;8.75;7.00;;;;;;;;3725363;38;20793;-66
2021/03/18 10:52:33;;;;;;;;;6.50;6.50;;;;;;;;3725161;38;20685;-68
2021/03/18 10:54:59;;;;;;;;;9.50;6.50;;;;;;;;3724981;37;20665;-66
2021/03/18 10:57:25;;;;;;;;;12.75;11.75;;;;;;;;3725307;37;20739;-70
2021/03/18 10:59:58;;;;;;;;;7.25;6.25;;;;;;;;3725174;37;20788;-68
2021/03/18 11:02:24;;;;;;;;;9.00;9.00;;;;;;;;3725256;37;20690;-67
2021/03/18 11:04:54;;;;;;;;;7.00;6.25;;;;;;;;3724635;37;20662;-67
2021/03/18 11:07:20;;;;;;;;;11.00;8.50;;;;;;;;3725216;37;20666;-70
2021/03/18 11:10:04;;;;;;;;;8.25;8.25;;;;;;;;3725104;38;20737;-68
2021/03/18 11:12:30;;;;;;;;;8.00;7.75;;;;;;;;3725323;38;20641;-67
2021/03/18 11:14:56;;;;;;;;;7.00;7.00;;;;;;;;3725372;37;20648;-68
2021/03/18 11:17:26;;;;;;;;;7.50;6.50;;;;;;;;3725505;38;17743;-69
2021/03/18 11:20:06;;;;;;;;;7.50;7.00;;;;;;;;3725443;38;17748;-68
2021/03/18 11:22:32;;;;;;;;;11.00;8.75;;;;;;;;3725345;38;20640;-69
2021/03/18 11:25:01;;;;;;;;;7.75;6.50;;;;;;;;3724995;38;20691;-66
2021/03/18 11:27:27;;;;;;;;;7.25;6.00;;;;;;;;3725130;38;17740;-65
2021/03/18 11:29:53;;;;;;;;;6.25;6.25;;;;;;;;3725003;37;20640;-68
2021/03/18 11:32:19;;;;;;;;;6.75;6.75;;;;;;;;3725063;38;17723;-66
2021/03/18 11:34:52;;;;;;;;;8.00;8.00;;;;;;;;3725243;38;17728;-68
2021/03/18 11:37:18;;;;;;;;;9.25;7.00;;;;;;;;3725258;37;20623;-65
2021/03/18 11:39:45;;;;;;;;;8.75;8.00;;;;;;;;3725270;37;20621;-65
2021/03/18 11:42:11;;;;;;;;;9.00;7.75;;;;;;;;3725521;38;20619;-68
2021/03/18 11:44:37;;;;;;;;;8.75;7.75;;;;;;;;3725204;37;17722;-66
2021/03/18 11:47:12;;;;;;;;;11.50;11.50;;;;;;;;3725112;38;20617;-67
2021/03/18 11:49:38;;;;;;;;;8.50;8.00;;;;;;;;3725332;37;17728;-67
2021/03/18 11:52:06;;;;;;;;;7.25;7.00;;;;;;;;3725369;38;20604;-68
2021/03/18 11:54:33;;;;;;;;;10.75;7.50;;;;;;;;3725101;38;20614;-66
2021/03/18 11:56:59;;;;;;;;;6.00;6.00;;;;;;;;3724695;38;20655;-67
2021/03/18 11:59:25;;;;;;;;;6.75;6.75;;;;;;;;3725524;37;20598;-67
2021/03/18 12:01:52;;;;;;;;;3.50;3.00;;;;;;;;3725352;37;20576;-69
2021/03/18 12:04:18;;;;;;;;;6.75;6.25;;;;;;;;3724969;38;20595;-70
2021/03/18 12:06:44;;;;;;;;;6.00;4.00;;;;;;;;3725379;38;20646;-68
2021/03/18 12:09:10;;;;;;;;;8.00;7.00;;;;;;;;3725620;37;20575;-67
2021/03/18 12:11:36;;;;;;;;;8.00;7.00;;;;;;;;3725752;38;17698;-69
2021/03/18 12:14:03;;;;;;;;;6.00;6.00;;;;;;;;3725393;37;17672;-69
2021/03/18 12:16:38;;;;;;;;;3.00;3.00;;;;;;;;3725015;37;20634;-66
2021/03/18 12:19:06;;;;;;;;;8.50;6.75;;;;;;;;3725367;38;20633;-68
2021/03/18 12:21:33;;;;;;;;;7.75;6.75;;;;;;;;3725186;38;20574;-67
2021/03/18 12:23:59;;;;;;;;;5.00;4.00;;;;;;;;3725200;37;20676;-67
2021/03/18 12:26:25;;;;;;;;;6.00;5.50;;;;;;;;3725465;38;20680;-70
2021/03/18 12:28:51;;;;;;;;;3.75;3.75;;;;;;;;3725749;38;20268;-67
2021/03/18 12:31:18;;;;;;;;;6.25;6.00;;;;;;;;3725319;38;17796;-69
2021/03/18 12:33:44;;;;;;;;;10.50;8.50;;;;;;;;3725222;37;20556;-68
2021/03/18 12:36:10;;;;;;;;;6.75;6.75;;;;;;;;3725470;37;21493;-68
2021/03/18 12:38:36;;;;;;;;;8.00;7.50;;;;;;;;3725649;38;20561;-66
2021/03/18 12:41:02;;;;;;;;;6.25;4.00;;;;;;;;3726103;38;20537;-69
2021/03/18 12:43:28;;;;;;;;;6.25;6.00;;;;;;;;3725723;38;18630;-67
2021/03/18 12:45:53;;;;;;;;;4.50;3.25;;;;;;;;3725360;37;17653;-66
2021/03/18 12:48:19;;;;;;;;;2.75;2.75;;;;;;;;3725077;37;20644;-65
2021/03/18 12:50:47;;;;;;;;;4.50;4.00;;;;;;;;3726037;38;18638;-68
2021/03/18 12:53:26;;;;;;;;;3.50;3.50;;;;;;;;3740893;37;20540;-66
2021/03/18 12:55:53;;;;;;;;;6.00;5.50;;;;;;;;3738944;37;21546;-67
2021/03/18 12:58:19;;;;;;;;;6.00;4.50;;;;;;;;3725977;38;21546;-70
2021/03/18 13:00:47;;;;;;;;;3.25;3.00;;;;;;;;3738820;38;21530;-67
2021/03/18 13:03:19;;;;;;;;;3.75;2.50;;;;;;;;3741066;37;18604;-70
2021/03/18 13:05:44;;;;;;;;;297.00;242.20;;;;;;;;3734962;37;21517;-67
2021/03/18 13:08:10;;;;;;;;;232.75;182.25;;;;;;;;3725736;37;18629;-69
2021/03/18 13:10:36;;;;;;;;;2.00;1.75;;;;;;;;3725392;38;18614;-65
2021/03/18 13:13:01;;;;;;;;;8.00;7.00;;;;;;;;3725468;38;18592;-67
2021/03/18 13:15:27;;;;;;;;;6.25;6.00;;;;;;;;3725487;38;18602;-67
2021/03/18 13:17:53;;;;;;;;;9.50;8.00;;;;;;;;3725760;37;18581;-71
2021/03/18 13:20:20;;;;;;;;;7.50;7.00;;;;;;;;3725429;37;18580;-69
2021/03/18 13:22:46;;;;;;;;;7.50;7.25;;;;;;;;3725304;38;18606;-67
2021/03/18 13:25:13;;;;;;;;;6.75;6.75;;;;;;;;3725340;37;21511;-65
2021/03/18 13:27:41;;;;;;;;;6.75;6.75;;;;;;;;3725053;38;21509;-67
2021/03/18 13:30:15;;;;;;;;;9.50;6.75;;;;;;;;3725167;38;21475;-67
2021/03/18 13:32:41;;;;;;;;;6.00;4.00;;;;;;;;3725497;37;21513;-65
2021/03/18 13:35:07;;;;;;;;;6.50;6.00;;;;;;;;3725142;37;21488;-66
2021/03/18 13:37:33;;;;;;;;;4.00;3.25;;;;;;;;3725031;38;21504;-64